Time;durP1;ratioP1;P1;durP2;ratioP2;P2;SDS_P1;SDS_P2;PMS_P1;PMS_P2;Temp;Humidity;BMP_temperature;BMP_pressure;BME280_temperature;BME280_humidity;BME280_pressure;Samples;Min_cycle;Max_cycle;Signal;HPM_P1;HPM_P2
2022/03/21 00:00:55;;;;;;;59.85;30.00;;;3.80;99.90;;;;;;6184647;23;20036;-81
2022/03/21 00:03:28;;;;;;;57.47;27.02;;;3.80;99.90;;;;;;6184512;23;20028;-81
2022/03/21 00:05:54;;;;;;;55.22;27.00;;;3.90;99.90;;;;;;6159799;23;20017;-81
2022/03/21 00:08:22;;;;;;;59.42;27.48;;;3.90;99.90;;;;;;6184636;23;20397;-81
2022/03/21 00:10:49;;;;;;;65.85;28.17;;;3.90;99.90;;;;;;6159739;23;20378;-81
2022/03/21 00:13:15;;;;;;;55.22;26.13;;;3.90;99.90;;;;;;6159453;23;20017;-81
2022/03/21 00:15:41;;;;;;;64.75;29.65;;;3.80;99.90;;;;;;6184068;23;20024;-81
2022/03/21 00:18:07;;;;;;;69.78;30.52;;;3.80;99.90;;;;;;6159890;23;20017;-82
2022/03/21 00:20:34;;;;;;;62.60;30.38;;;3.80;99.90;;;;;;6159618;23;20019;-81
2022/03/21 00:23:00;;;;;;;69.32;30.05;;;3.80;99.90;;;;;;6184692;23;20017;-81
2022/03/21 00:25:26;;;;;;;57.67;27.48;;;3.80;99.90;;;;;;6184461;23;20064;-81
2022/03/21 00:27:52;;;;;;;54.80;28.05;;;3.90;99.90;;;;;;6184534;23;20017;-81
2022/03/21 00:30:18;;;;;;;63.50;29.15;;;3.90;99.90;;;;;;6184499;23;20496;-81
2022/03/21 00:32:44;;;;;;;60.92;29.00;;;3.90;99.90;;;;;;6184779;23;20013;-81
2022/03/21 00:35:14;;;;;;;61.88;29.50;;;3.90;99.90;;;;;;6184841;23;20019;-81
2022/03/21 00:37:41;;;;;;;65.03;30.30;;;3.90;99.90;;;;;;6184719;23;20019;-81
2022/03/21 00:40:08;;;;;;;72.95;32.58;;;3.90;99.90;;;;;;6184351;23;20013;-81
2022/03/21 00:42:38;;;;;;;64.82;31.08;;;3.90;99.90;;;;;;6184257;23;20059;-81
2022/03/21 00:45:15;;;;;;;61.13;27.88;;;3.90;99.90;;;;;;6184576;23;20714;-81
2022/03/21 00:47:41;;;;;;;54.85;27.85;;;3.90;99.90;;;;;;6184640;23;20009;-81
2022/03/21 00:50:08;;;;;;;65.68;30.77;;;3.80;99.90;;;;;;6159171;23;20013;-81
2022/03/21 00:52:48;;;;;;;60.95;28.85;;;3.80;99.90;;;;;;6159368;23;20013;-81
2022/03/21 00:55:16;;;;;;;61.40;29.55;;;3.80;99.90;;;;;;6183948;23;20115;-81
2022/03/21 00:57:42;;;;;;;63.92;30.50;;;3.80;99.90;;;;;;6183913;23;20040;-81
2022/03/21 01:00:17;;;;;;;68.13;30.98;;;3.80;99.90;;;;;;6183442;23;20020;-80
2022/03/21 01:02:43;;;;;;;66.05;30.85;;;3.80;99.90;;;;;;6183712;23;20017;-80
2022/03/21 01:05:10;;;;;;;63.45;29.55;;;3.90;99.90;;;;;;6183871;23;20012;-80
2022/03/21 01:07:37;;;;;;;64.45;29.73;;;3.90;99.90;;;;;;6183708;23;20342;-80
2022/03/21 01:10:04;;;;;;;62.00;31.38;;;3.90;99.90;;;;;;6183490;23;20349;-80
2022/03/21 01:12:30;;;;;;;60.75;29.98;;;3.90;99.90;;;;;;6184079;23;20013;-80
2022/03/21 01:14:56;;;;;;;68.43;30.55;;;4.00;99.90;;;;;;6183806;23;20008;-80
2022/03/21 01:17:22;;;;;;;65.53;29.92;;;4.00;99.90;;;;;;6159137;23;20044;-80
2022/03/21 01:19:47;;;;;;;67.50;31.92;;;4.00;99.90;;;;;;6183572;23;20017;-80
2022/03/21 01:22:13;;;;;;;67.70;32.03;;;4.00;99.90;;;;;;6183605;23;20075;-80
2022/03/21 01:24:39;;;;;;;62.80;31.33;;;4.00;99.90;;;;;;6183449;23;20080;-80
2022/03/21 01:27:05;;;;;;;61.15;30.48;;;3.90;99.90;;;;;;6182425;23;20025;-80
2022/03/21 01:29:31;;;;;;;77.03;33.63;;;3.90;99.90;;;;;;6181941;23;20020;-80
2022/03/21 01:31:57;;;;;;;71.75;30.92;;;3.90;99.90;;;;;;6182902;23;20009;-80
2022/03/21 01:34:22;;;;;;;67.55;31.75;;;3.90;99.90;;;;;;6157393;23;20450;-80
2022/03/21 01:36:48;;;;;;;65.05;31.33;;;3.80;99.90;;;;;;6182697;23;20060;-80
2022/03/21 01:39:14;;;;;;;65.80;31.05;;;3.80;99.90;;;;;;6182520;23;20446;-80
2022/03/21 01:41:39;;;;;;;68.30;33.25;;;3.80;99.90;;;;;;6181998;23;20013;-80
2022/03/21 01:44:07;;;;;;;70.60;33.05;;;3.80;99.90;;;;;;6182224;23;20017;-80
2022/03/21 01:46:34;;;;;;;63.33;31.13;;;3.80;99.90;;;;;;6182325;23;20017;-80
2022/03/21 01:49:01;;;;;;;61.70;28.80;;;3.70;99.90;;;;;;6157372;23;20013;-80
2022/03/21 01:51:27;;;;;;;57.67;29.30;;;3.70;99.90;;;;;;6181973;23;20080;-80
2022/03/21 01:56:40;;;;;;;59.90;28.08;;;3.60;99.90;;;;;;6182464;23;20020;-81
2022/03/21 01:59:08;;;;;;;71.22;32.05;;;3.50;99.90;;;;;;6182248;23;20032;-81
2022/03/21 02:01:34;;;;;;;62.88;29.58;;;3.40;99.90;;;;;;6182225;23;20037;-81
2022/03/21 02:04:00;;;;;;;58.63;28.75;;;3.30;99.90;;;;;;6183893;23;20040;-81
2022/03/21 02:06:28;;;;;;;59.05;28.38;;;3.30;99.90;;;;;;6182404;23;20032;-81
2022/03/21 02:08:57;;;;;;;75.88;32.38;;;3.20;99.90;;;;;;6182216;23;20450;-81
2022/03/21 02:11:23;;;;;;;62.88;30.25;;;3.10;99.90;;;;;;6181947;23;20058;-80
2022/03/21 02:13:57;;;;;;;62.80;30.50;;;3.10;99.90;;;;;;6182675;23;20017;-80
2022/03/21 02:16:24;;;;;;;61.28;29.15;;;3.10;99.90;;;;;;6182136;23;20027;-80
2022/03/21 02:18:50;;;;;;;63.33;28.20;;;3.10;99.90;;;;;;6183323;23;20075;-80
2022/03/21 02:21:26;;;;;;;57.17;27.13;;;3.00;99.90;;;;;;6184228;23;20017;-80
2022/03/21 02:23:56;;;;;;;59.10;26.63;;;3.00;99.90;;;;;;6184439;23;20027;-81
2022/03/21 02:26:23;;;;;;;57.25;26.85;;;2.90;99.90;;;;;;6184967;23;20031;-81
2022/03/21 02:28:50;;;;;;;64.80;27.50;;;2.90;99.90;;;;;;6185672;23;20025;-81
2022/03/21 02:31:16;;;;;;;60.78;26.15;;;2.80;99.90;;;;;;6184954;23;20055;-81
2022/03/21 02:33:42;;;;;;;65.40;27.90;;;2.80;99.90;;;;;;6160576;23;20036;-81
2022/03/21 02:36:09;;;;;;;60.33;25.52;;;2.80;99.90;;;;;;6185293;23;20074;-81
2022/03/21 02:38:36;;;;;;;62.05;26.17;;;2.90;99.90;;;;;;6160492;23;20021;-81
2022/03/21 02:41:02;;;;;;;58.70;25.33;;;2.80;99.90;;;;;;6184858;23;20354;-81
2022/03/21 02:43:27;;;;;;;54.35;24.85;;;2.80;99.90;;;;;;6185544;23;20405;-81
2022/03/21 02:46:03;;;;;;;57.83;25.42;;;2.90;99.90;;;;;;6184936;23;20021;-80
2022/03/21 02:48:29;;;;;;;56.28;24.48;;;2.80;99.90;;;;;;6185000;23;20787;-80
2022/03/21 02:51:00;;;;;;;56.95;25.20;;;2.80;99.90;;;;;;6184912;23;20017;-80
2022/03/21 02:53:29;;;;;;;52.70;25.67;;;2.80;99.90;;;;;;6185353;23;20080;-80
2022/03/21 02:55:56;;;;;;;55.70;24.65;;;2.80;99.90;;;;;;6184948;23;20099;-80
2022/03/21 02:58:21;;;;;;;55.72;25.38;;;2.80;99.90;;;;;;6184986;23;20454;-80
2022/03/21 03:00:47;;;;;;;49.58;23.50;;;2.80;99.90;;;;;;6184960;23;20016;-80
2022/03/21 03:03:13;;;;;;;55.13;25.00;;;2.80;99.90;;;;;;6184897;23;20096;-80
2022/03/21 03:05:38;;;;;;;52.20;23.05;;;2.80;99.90;;;;;;6184770;23;20013;-80
2022/03/21 03:08:04;;;;;;;52.25;23.67;;;2.70;99.90;;;;;;6184662;23;20013;-80
2022/03/21 03:10:30;;;;;;;51.88;24.35;;;2.60;99.90;;;;;;6184774;23;20013;-80
2022/03/21 03:12:56;;;;;;;58.25;22.85;;;2.50;99.90;;;;;;6184649;23;20009;-80
2022/03/21 03:15:21;;;;;;;49.83;23.42;;;2.50;99.90;;;;;;6184671;23;20079;-80
2022/03/21 03:17:47;;;;;;;50.13;23.33;;;2.60;99.90;;;;;;6184941;23;20091;-80
2022/03/21 03:20:13;;;;;;;47.92;22.58;;;2.50;99.90;;;;;;6184726;23;20454;-80
2022/03/21 03:22:39;;;;;;;48.53;21.67;;;2.50;99.90;;;;;;6184388;23;20017;-80
2022/03/21 03:25:05;;;;;;;47.15;20.52;;;2.50;99.90;;;;;;6184528;23;20095;-80
2022/03/21 03:27:31;;;;;;;42.88;20.77;;;2.40;99.90;;;;;;6184572;23;20103;-80
2022/03/21 03:29:57;;;;;;;45.42;20.67;;;2.40;99.90;;;;;;6184056;23;20098;-80
2022/03/21 03:32:24;;;;;;;43.00;19.98;;;2.30;99.90;;;;;;6184737;23;20013;-80
2022/03/21 03:34:50;;;;;;;46.90;21.02;;;2.20;99.90;;;;;;6184738;23;20076;-80
2022/03/21 03:37:16;;;;;;;43.80;21.55;;;2.20;99.90;;;;;;6184583;23;20021;-80
2022/03/21 03:39:42;;;;;;;43.10;20.45;;;2.20;99.90;;;;;;6184527;23;20029;-80
2022/03/21 03:42:08;;;;;;;40.95;19.33;;;2.10;99.90;;;;;;6184992;23;20024;-80
2022/03/21 03:44:34;;;;;;;47.08;19.60;;;2.10;99.90;;;;;;6184541;23;20067;-80
2022/03/21 03:46:59;;;;;;;38.83;19.27;;;2.00;99.90;;;;;;6184649;23;20024;-80
2022/03/21 03:49:26;;;;;;;41.08;19.00;;;2.00;99.90;;;;;;6184483;23;20017;-80
2022/03/21 03:51:52;;;;;;;154.63;22.85;;;1.90;99.90;;;;;;6184607;23;20009;-80
2022/03/21 03:54:18;;;;;;;49.25;19.52;;;1.90;99.90;;;;;;6184378;23;20349;-80
2022/03/21 03:56:44;;;;;;;35.42;18.23;;;1.90;99.90;;;;;;6184517;23;20013;-80
2022/03/21 03:59:10;;;;;;;33.00;15.38;;;1.90;99.90;;;;;;6184846;23;20016;-80
2022/03/21 04:01:37;;;;;;;43.42;21.50;;;1.90;99.90;;;;;;6184353;23;20461;-80
2022/03/21 04:04:03;;;;;;;45.13;19.73;;;1.90;99.90;;;;;;6184444;23;20020;-80
2022/03/21 04:06:29;;;;;;;35.63;18.20;;;1.90;99.90;;;;;;6184453;23;20012;-80
2022/03/21 04:08:54;;;;;;;45.13;19.30;;;1.90;99.90;;;;;;6184475;23;20092;-80
2022/03/21 04:11:20;;;;;;;37.83;17.08;;;1.80;99.90;;;;;;6184246;23;20331;-80
2022/03/21 04:13:46;;;;;;;40.45;18.02;;;1.80;99.90;;;;;;6184423;23;20013;-80
2022/03/21 04:16:14;;;;;;;38.22;16.17;;;1.80;99.90;;;;;;6184370;23;20021;-80
2022/03/21 04:18:40;;;;;;;38.53;16.58;;;1.80;99.90;;;;;;6184095;23;20508;-80
2022/03/21 04:21:06;;;;;;;37.25;17.73;;;1.80;99.90;;;;;;6184432;23;20053;-80
2022/03/21 04:23:31;;;;;;;32.70;16.40;;;1.80;99.90;;;;;;6184624;23;20017;-80
2022/03/21 04:25:58;;;;;;;33.83;16.35;;;1.70;99.90;;;;;;6159432;23;20019;-80
2022/03/21 04:28:23;;;;;;;37.13;16.77;;;1.70;99.90;;;;;;6184195;23;20088;-80
2022/03/21 04:30:49;;;;;;;38.42;16.98;;;1.70;99.90;;;;;;6185873;23;20060;-80
2022/03/21 04:33:15;;;;;;;37.53;17.80;;;1.70;99.90;;;;;;6183982;23;20498;-80
2022/03/21 04:35:42;;;;;;;36.45;15.90;;;1.70;99.90;;;;;;6184032;23;20016;-80
2022/03/21 04:38:15;;;;;;;33.55;15.65;;;1.70;99.90;;;;;;6184397;23;20086;-80
2022/03/21 04:40:41;;;;;;;31.17;14.57;;;1.70;99.90;;;;;;6184297;23;20016;-80
2022/03/21 04:43:08;;;;;;;33.88;15.90;;;1.60;99.90;;;;;;6159424;23;20013;-80
2022/03/21 04:45:35;;;;;;;35.75;15.88;;;1.60;99.90;;;;;;6183973;23;20013;-80
2022/03/21 04:48:00;;;;;;;30.13;13.77;;;1.60;99.90;;;;;;6184068;23;20021;-80
2022/03/21 04:50:27;;;;;;;32.38;15.30;;;1.60;99.90;;;;;;6184008;23;20017;-80
2022/03/21 04:52:52;;;;;;;28.20;13.85;;;1.60;99.90;;;;;;6184454;23;20016;-80
2022/03/21 04:55:18;;;;;;;31.67;15.05;;;1.60;99.90;;;;;;6184109;23;20009;-80
2022/03/21 04:57:43;;;;;;;27.45;13.27;;;1.50;99.90;;;;;;6159475;23;20311;-80
2022/03/21 05:00:09;;;;;;;31.52;14.15;;;1.40;99.90;;;;;;6184090;23;20021;-80
2022/03/21 05:02:35;;;;;;;22.85;9.38;;;1.40;99.90;;;;;;6184582;23;20100;-80
2022/03/21 05:05:00;;;;;;;26.88;11.98;;;1.30;99.90;;;;;;6185171;23;20044;-80
2022/03/21 05:07:26;;;;;;;21.23;11.20;;;1.30;99.90;;;;;;6185016;23;20013;-80
2022/03/21 05:09:52;;;;;;;20.92;11.30;;;1.30;99.90;;;;;;6184557;23;20040;-80
2022/03/21 05:12:18;;;;;;;19.60;9.32;;;1.30;99.90;;;;;;6185276;23;20016;-80
2022/03/21 05:14:44;;;;;;;22.67;11.80;;;1.30;99.90;;;;;;6185237;23;20017;-80
2022/03/21 05:17:10;;;;;;;19.77;10.43;;;1.20;99.90;;;;;;6185669;23;20027;-80
2022/03/21 05:19:36;;;;;;;22.95;10.43;;;1.10;99.90;;;;;;6160404;23;20045;-80
2022/03/21 05:22:06;;;;;;;23.05;11.50;;;1.10;99.90;;;;;;6186992;23;20358;-80
2022/03/21 05:32:48;;;;;;;150.85;20.95;;;0.90;99.90;;;;;;6184596;23;20414;-80
2022/03/21 05:37:57;;;;;;;24.02;11.20;;;0.90;99.90;;;;;;6184666;23;20341;-80
2022/03/21 05:40:31;;;;;;;90.28;15.25;;;0.80;99.90;;;;;;6184578;23;20017;-80
2022/03/21 05:42:57;;;;;;;23.10;12.57;;;0.80;99.90;;;;;;6158895;23;20017;-82
2022/03/21 05:45:31;;;;;;;26.05;11.63;;;0.80;99.90;;;;;;6184669;23;20060;-84
2022/03/21 05:56:27;;;;;;;;;;;;;;;;;;;;;
2022/03/21 06:07:29;;;;;;;16.25;7.75;;;0.60;99.90;;;;;;6136393;23;20045;-84
2022/03/21 06:14:25;;;;;;;24.02;8.52;;;0.70;99.90;;;;;;6034895;23;20471;-85
2022/03/21 06:17:58;;;;;;;;;;;;;;;;;;;;;
2022/03/21 06:21:28;;;;;;;29.58;8.13;;;0.80;99.90;;;;;;5893129;24;20013;-84
2022/03/21 06:27:51;;;;;;;38.25;10.57;;;0.80;99.90;;;;;;6215184;23;20358;-84
2022/03/21 06:30:33;;;;;;;21.48;8.50;;;0.90;99.90;;;;;;5952883;24;20348;-84
2022/03/21 06:37:12;;;;;;;85.43;38.20;;;0.90;99.90;;;;;;6094327;23;20057;-84
2022/03/21 06:46:36;;;;;;;15.25;8.60;;;1.40;99.90;;;;;;6213793;23;20012;-85
2022/03/21 06:49:05;;;;;;;13.95;8.18;;;1.40;99.90;;;;;;6133315;23;20010;-84
2022/03/21 06:51:43;;;;;;;13.23;8.05;;;1.40;99.90;;;;;;6157329;23;20076;-80
2022/03/21 06:54:08;;;;;;;14.82;8.63;;;1.60;99.90;;;;;;6156926;23;20017;-80
2022/03/21 06:56:34;;;;;;;12.93;8.32;;;1.70;99.90;;;;;;6156459;23;20009;-80
2022/03/21 06:58:59;;;;;;;13.10;8.52;;;1.80;99.90;;;;;;6156446;23;20092;-81
2022/03/21 07:01:25;;;;;;;18.65;9.10;;;1.90;99.90;;;;;;6156071;23;20021;-81
2022/03/21 07:03:51;;;;;;;21.70;10.07;;;2.10;99.90;;;;;;6156498;23;20123;-80
2022/03/21 07:06:17;;;;;;;21.42;11.35;;;2.40;99.90;;;;;;6158220;23;20496;-80
2022/03/21 07:08:43;;;;;;;19.95;11.05;;;2.80;99.90;;;;;;6158410;23;20021;-81
2022/03/21 07:11:12;;;;;;;20.63;10.15;;;3.20;99.90;;;;;;6158224;23;20454;-81
2022/03/21 07:13:38;;;;;;;19.17;10.55;;;3.50;99.90;;;;;;6133838;23;20009;-81
2022/03/21 07:16:04;;;;;;;25.65;12.30;;;3.60;99.90;;;;;;6158255;23;20458;-81
2022/03/21 07:18:30;;;;;;;28.23;11.88;;;3.80;99.90;;;;;;6158457;23;20024;-81
2022/03/21 07:20:55;;;;;;;24.20;13.05;;;4.10;99.90;;;;;;6157932;23;20047;-81
2022/03/21 07:23:21;;;;;;;22.98;11.13;;;4.50;99.90;;;;;;6158653;23;20013;-81
2022/03/21 07:25:47;;;;;;;22.27;11.32;;;5.10;99.90;;;;;;6158580;23;20568;-81
2022/03/21 07:28:12;;;;;;;18.20;9.45;;;5.90;99.90;;;;;;6158488;23;20040;-81
2022/03/21 07:30:38;;;;;;;16.45;9.88;;;6.50;99.90;;;;;;6158053;23;20019;-81
2022/03/21 07:33:04;;;;;;;14.32;9.20;;;7.10;99.90;;;;;;6158660;23;20097;-81
2022/03/21 07:35:30;;;;;;;17.48;9.73;;;7.60;99.90;;;;;;6158315;23;20052;-81
2022/03/21 07:37:57;;;;;;;19.02;10.75;;;8.30;99.90;;;;;;6158267;23;20017;-81
2022/03/21 07:40:25;;;;;;;22.58;12.23;;;8.90;99.90;;;;;;6184181;23;20017;-81
2022/03/21 07:42:50;;;;;;;19.92;11.68;;;9.40;99.90;;;;;;6158180;23;20013;-81
2022/03/21 07:48:03;;;;;;;21.23;12.00;;;10.30;99.90;;;;;;6136760;23;20032;-81
2022/03/21 07:50:29;;;;;;;25.65;13.20;;;10.80;99.90;;;;;;6105192;23;20028;-82
2022/03/21 07:52:58;;;;;;;25.42;12.68;;;11.20;99.90;;;;;;6129417;23;20045;-82
2022/03/21 07:55:24;;;;;;;23.73;13.25;;;11.50;99.90;;;;;;6129888;23;20020;-81
2022/03/21 07:57:50;;;;;;;23.42;13.00;;;11.90;99.90;;;;;;6129547;23;20056;-81
2022/03/21 08:00:16;;;;;;;20.52;11.77;;;12.20;99.90;;;;;;6129283;23;20462;-81
2022/03/21 08:02:43;;;;;;;22.85;12.63;;;12.40;99.90;;;;;;6128888;23;20469;-81
2022/03/21 08:05:09;;;;;;;22.48;11.85;;;12.60;99.90;;;;;;6128370;23;20021;-81
2022/03/21 08:07:35;;;;;;;21.73;11.65;;;12.70;99.90;;;;;;6128353;23;20017;-81
2022/03/21 08:10:02;;;;;;;25.92;13.13;;;12.80;99.90;;;;;;6127706;23;20017;-81
2022/03/21 08:12:28;;;;;;;22.75;12.25;;;12.90;99.90;;;;;;6128334;23;20068;-81
2022/03/21 08:14:53;;;;;;;15.43;10.57;;;13.00;99.90;;;;;;6128640;23;20018;-81
2022/03/21 08:17:19;;;;;;;23.42;11.07;;;12.90;99.90;;;;;;6152669;23;20021;-81
2022/03/21 08:19:45;;;;;;;20.48;10.20;;;12.90;99.90;;;;;;6127865;23;20084;-81
2022/03/21 08:22:11;;;;;;;17.48;10.68;;;12.80;99.90;;;;;;6128115;23;20072;-81
2022/03/21 08:24:36;;;;;;;18.25;10.98;;;12.90;99.90;;;;;;6128220;23;20013;-81
2022/03/21 08:27:05;;;;;;;19.60;10.60;;;13.00;99.90;;;;;;6128317;23;20073;-81
2022/03/21 08:29:30;;;;;;;20.30;10.77;;;12.80;99.90;;;;;;6127734;23;20006;-81
2022/03/21 08:31:56;;;;;;;20.85;10.93;;;12.60;99.90;;;;;;6128023;23;20152;-81
2022/03/21 08:34:22;;;;;;;17.55;10.32;;;12.40;99.90;;;;;;6128013;23;20021;-82
2022/03/21 08:36:48;;;;;;;17.42;9.88;;;12.30;99.90;;;;;;6127874;23;20013;-82
2022/03/21 08:39:14;;;;;;;16.40;9.65;;;12.30;99.90;;;;;;6128179;23;20383;-82
2022/03/21 08:41:39;;;;;;;17.80;9.23;;;12.30;99.90;;;;;;6127721;23;20029;-81
2022/03/21 08:44:05;;;;;;;18.48;9.15;;;12.30;99.90;;;;;;6127877;23;20025;-81
2022/03/21 08:46:31;;;;;;;21.20;10.60;;;12.30;99.90;;;;;;6131360;23;20088;-80
2022/03/21 08:51:43;;;;;;;18.23;9.30;;;12.50;99.90;;;;;;6156724;23;20084;-81
2022/03/21 08:54:10;;;;;;;17.92;9.25;;;12.80;99.90;;;;;;6157085;23;20013;-81
2022/03/21 08:56:35;;;;;;;19.20;10.30;;;13.00;99.90;;;;;;6132470;23;20087;-81
2022/03/21 08:59:01;;;;;;;20.48;10.32;;;13.20;99.90;;;;;;6132573;23;20048;-81
2022/03/21 09:01:27;;;;;;;20.17;9.55;;;13.30;99.90;;;;;;6156752;23;20020;-81
2022/03/21 09:03:53;;;;;;;18.75;10.50;;;13.50;99.90;;;;;;6157051;23;20028;-81
2022/03/21 09:06:22;;;;;;;22.75;11.23;;;13.60;99.90;;;;;;6157231;23;20021;-80
2022/03/21 09:08:49;;;;;;;19.88;10.57;;;13.60;99.90;;;;;;6132390;23;20017;-79
2022/03/21 09:11:17;;;;;;;21.63;11.90;;;13.70;99.90;;;;;;6156649;23;20024;-80
2022/03/21 09:13:44;;;;;;;19.23;9.98;;;13.80;99.90;;;;;;6133029;23;20460;-80
2022/03/21 09:16:10;;;;;;;20.38;11.65;;;13.80;99.90;;;;;;6157141;23;20040;-80
2022/03/21 09:18:36;;;;;;;20.02;10.95;;;14.10;99.90;;;;;;6157348;23;20024;-80
2022/03/21 09:21:02;;;;;;;16.83;10.95;;;14.40;99.90;;;;;;6156758;23;20350;-80
2022/03/21 09:23:27;;;;;;;23.70;12.75;;;14.70;99.90;;;;;;6157369;23;20016;-80
2022/03/21 09:25:53;;;;;;;20.75;11.40;;;14.80;99.90;;;;;;6157118;23;20281;-80
2022/03/21 09:28:18;;;;;;;24.95;12.13;;;14.80;99.90;;;;;;6157566;23;20027;-79
2022/03/21 09:30:44;;;;;;;19.65;12.93;;;15.00;99.90;;;;;;6156517;23;20024;-79
2022/03/21 09:33:09;;;;;;;27.02;13.07;;;15.00;99.90;;;;;;6156728;23;20454;-78
2022/03/21 09:35:35;;;;;;;24.83;13.38;;;15.10;99.90;;;;;;6156801;23;20466;-78
2022/03/21 09:38:02;;;;;;;21.85;12.00;;;15.10;99.90;;;;;;6182942;23;20390;-78
2022/03/21 09:40:29;;;;;;;27.92;14.48;;;15.20;99.90;;;;;;6156323;23;20043;-79
2022/03/21 09:42:54;;;;;;;25.42;14.07;;;15.30;99.90;;;;;;6156706;23;20048;-79
2022/03/21 09:45:20;;;;;;;24.40;13.10;;;15.50;99.90;;;;;;6132057;23;20017;-79
2022/03/21 09:50:35;;;;;;;27.08;13.43;;;15.90;99.90;;;;;;6157145;23;20071;-80
2022/03/21 09:53:04;;;;;;;30.45;14.23;;;15.90;99.90;;;;;;6157407;23;20044;-80
2022/03/21 09:55:30;;;;;;;24.38;14.27;;;16.10;99.90;;;;;;6157430;23;20385;-81
2022/03/21 09:57:55;;;;;;;24.48;15.27;;;16.30;99.90;;;;;;6157756;23;20028;-80
2022/03/21 10:00:22;;;;;;;22.83;14.38;;;16.30;99.90;;;;;;6157537;23;20017;-80
2022/03/21 10:02:47;;;;;;;25.75;14.35;;;16.40;99.90;;;;;;6156892;23;20017;-80
2022/03/21 10:05:39;;;;;;;24.20;13.93;;;16.50;99.90;;;;;;6157072;23;20081;-80
2022/03/21 10:08:17;;;;;;;25.13;14.70;;;16.60;99.90;;;;;;6183360;23;20081;-80
2022/03/21 10:11:01;;;;;;;24.27;14.68;;;16.70;96.10;;;;;;6156259;23;20114;-81
2022/03/21 10:13:35;;;;;;;22.75;14.55;;;16.90;98.70;;;;;;6132516;23;20009;-80
2022/03/21 10:16:09;;;;;;;32.17;14.85;;;17.10;99.90;;;;;;6156717;23;20091;-80
2022/03/21 10:18:36;;;;;;;25.92;14.43;;;17.00;99.90;;;;;;6156599;23;20044;-80
2022/03/21 10:21:15;;;;;;;28.98;14.80;;;16.90;99.90;;;;;;6132085;23;20517;-80
2022/03/21 10:23:44;;;;;;;26.48;13.75;;;16.50;99.90;;;;;;6156419;23;20013;-81
2022/03/21 10:26:30;;;;;;;26.17;13.77;;;16.30;99.90;;;;;;6156684;23;20040;-80
2022/03/21 10:28:59;;;;;;;26.33;14.93;;;16.00;85.70;;;;;;6156647;23;20013;-80
2022/03/21 10:31:34;;;;;;;26.05;14.25;;;15.70;99.90;;;;;;6156177;23;20021;-80
2022/03/21 10:34:02;;;;;;;22.38;13.82;;;15.40;99.90;;;;;;6156629;23;20013;-80
2022/03/21 10:36:28;;;;;;;25.77;14.20;;;15.20;99.90;;;;;;6156436;23;20455;-80
2022/03/21 10:39:10;;;;;;;22.98;12.60;;;15.10;99.90;;;;;;6132600;23;20071;-80
2022/03/21 10:41:37;;;;;;;25.98;13.88;;;14.90;99.90;;;;;;6158545;23;20353;-80
2022/03/21 10:44:07;;;;;;;28.35;14.70;;;14.80;99.90;;;;;;6158368;23;20347;-80
2022/03/21 10:46:33;;;;;;;26.23;14.50;;;14.80;99.90;;;;;;6158611;23;20016;-80
2022/03/21 10:49:07;;;;;;;26.33;14.73;;;14.90;99.90;;;;;;6158467;23;20063;-81
2022/03/21 10:51:48;;;;;;;31.35;14.88;;;14.90;99.90;;;;;;6158297;23;20346;-80
2022/03/21 10:54:42;;;;;;;26.73;14.82;;;15.10;99.90;;;;;;6159014;23;20020;-80
2022/03/21 10:57:31;;;;;;;23.85;14.63;;;15.20;99.90;;;;;;6163456;23;20071;-80
2022/03/21 11:00:16;;;;;;;29.40;14.98;;;15.40;99.90;;;;;;6163280;23;20035;-80
2022/03/21 11:03:09;;;;;;;26.80;14.35;;;15.40;99.90;;;;;;6159348;23;20564;-80
2022/03/21 11:05:43;;;;;;;35.45;15.98;;;15.40;99.90;;;;;;6159157;23;20017;-80
2022/03/21 11:08:11;;;;;;;26.45;13.98;;;15.50;99.90;;;;;;6160333;23;20041;-82
2022/03/21 11:10:38;;;;;;;25.75;14.48;;;15.50;99.90;;;;;;6160777;23;20009;-82
2022/03/21 11:13:06;;;;;;;31.90;15.40;;;15.60;99.90;;;;;;6160999;23;20025;-82
2022/03/21 11:15:34;;;;;;;30.38;13.95;;;15.60;99.90;;;;;;6161073;23;20087;-82
2022/03/21 11:18:00;;;;;;;26.55;13.60;;;15.60;99.90;;;;;;6160417;23;20096;-82
2022/03/21 11:20:28;;;;;;;30.30;14.43;;;15.50;99.90;;;;;;6161666;23;20017;-81
2022/03/21 11:22:55;;;;;;;25.80;12.85;;;15.40;99.90;;;;;;6161249;23;20017;-82
2022/03/21 11:25:23;;;;;;;32.53;15.38;;;15.40;99.90;;;;;;6161588;23;20051;-82
2022/03/21 11:28:11;;;;;;;30.15;14.93;;;15.30;99.90;;;;;;6163644;23;20311;-83
2022/03/21 11:31:11;;;;;;;25.33;14.55;;;15.30;95.50;;;;;;6159118;23;20017;-82
2022/03/21 11:34:08;;;;;;;28.75;14.52;;;15.30;99.90;;;;;;6159383;23;20005;-82
2022/03/21 11:36:48;;;;;;;30.85;14.50;;;15.40;97.50;;;;;;6159219;23;20017;-83
2022/03/21 11:39:14;;;;;;;28.35;14.98;;;15.40;99.90;;;;;;6159254;23;20099;-82
2022/03/21 11:41:59;;;;;;;28.52;15.23;;;15.30;99.90;;;;;;6159444;23;20020;-83
2022/03/21 11:44:25;;;;;;;28.17;14.55;;;15.40;98.70;;;;;;6160219;23;20099;-83
2022/03/21 11:46:51;;;;;;;25.88;14.95;;;15.40;99.90;;;;;;6158870;23;20386;-83
2022/03/21 11:49:16;;;;;;;26.20;14.18;;;15.40;99.90;;;;;;6158537;23;20020;-83
2022/03/21 11:51:43;;;;;;;31.98;15.02;;;15.40;99.90;;;;;;6158042;23;20013;-75
2022/03/21 11:54:31;;;;;;;27.98;13.90;;;15.50;99.90;;;;;;6159433;23;20335;-82
2022/03/21 11:57:16;;;;;;;28.77;14.65;;;15.60;97.10;;;;;;6158897;23;20013;-82
2022/03/21 11:59:42;;;;;;;27.05;14.18;;;15.60;98.00;;;;;;6158735;23;20017;-82
2022/03/21 12:02:08;;;;;;;28.92;14.80;;;15.60;99.90;;;;;;6158537;23;20324;-81
2022/03/21 12:04:34;;;;;;;29.02;15.20;;;15.70;99.90;;;;;;6160192;23;20028;-82
2022/03/21 12:07:20;;;;;;;29.20;15.93;;;15.80;99.90;;;;;;6158461;23;20017;-81
2022/03/21 12:09:47;;;;;;;27.63;14.00;;;15.80;98.50;;;;;;6158278;23;20092;-82
2022/03/21 12:12:17;;;;;;;29.30;15.30;;;15.80;99.90;;;;;;6158416;23;20175;-81
2022/03/21 12:14:45;;;;;;;29.95;16.70;;;15.90;99.90;;;;;;6158923;23;20017;-81
2022/03/21 12:17:10;;;;;;;24.98;14.80;;;15.80;99.90;;;;;;6158579;23;20415;-81
2022/03/21 12:19:48;;;;;;;32.22;15.55;;;15.80;99.90;;;;;;6158099;23;20033;-82
2022/03/21 12:24:59;;;;;;;26.98;15.13;;;16.10;94.20;;;;;;6157321;23;20108;-81
2022/03/21 12:27:38;;;;;;;30.35;15.52;;;16.20;99.90;;;;;;6157632;23;20017;-81
2022/03/21 12:30:19;;;;;;;28.50;15.95;;;16.20;89.80;;;;;;6157064;23;20067;-81
2022/03/21 12:32:53;;;;;;;30.52;14.45;;;16.20;94.30;;;;;;6157836;23;20024;-81
2022/03/21 12:35:31;;;;;;;31.00;14.30;;;16.40;95.50;;;;;;6157164;23;20013;-81
2022/03/21 12:38:01;;;;;;;24.30;14.30;;;16.40;92.60;;;;;;6157343;23;20016;-81
2022/03/21 12:40:27;;;;;;;27.77;14.02;;;16.50;99.80;;;;;;6156758;23;20473;-81
2022/03/21 12:42:54;;;;;;;24.17;13.63;;;16.40;99.90;;;;;;6157567;23;20017;-81
2022/03/21 12:45:21;;;;;;;30.95;14.05;;;16.30;99.90;;;;;;6157280;23;20025;-81
2022/03/21 12:47:48;;;;;;;26.65;14.43;;;16.40;99.90;;;;;;6156918;23;20013;-81
2022/03/21 12:50:24;;;;;;;29.70;14.48;;;16.50;98.80;;;;;;6156795;23;20036;-81
2022/03/21 12:52:55;;;;;;;31.85;14.60;;;16.40;95.40;;;;;;6157520;23;20017;-81
2022/03/21 12:55:21;;;;;;;29.02;14.68;;;16.40;98.00;;;;;;6156998;23;20013;-81
2022/03/21 12:57:57;;;;;;;30.63;14.50;;;16.30;98.20;;;;;;6157346;23;20060;-81
2022/03/21 13:00:26;;;;;;;28.55;13.85;;;16.30;93.90;;;;;;6156665;23;20044;-81
2022/03/21 13:02:56;;;;;;;26.05;13.23;;;16.40;98.30;;;;;;6132123;23;20095;-81
2022/03/21 13:10:52;;;;;;;28.92;14.02;;;16.40;98.40;;;;;;6182961;23;20028;-81
2022/03/21 13:13:18;;;;;;;25.38;13.45;;;16.30;99.20;;;;;;6156901;23;20390;-81
2022/03/21 13:15:44;;;;;;;24.17;12.98;;;16.50;99.90;;;;;;6157047;23;20013;-81
2022/03/21 13:18:09;;;;;;;26.50;13.68;;;16.60;99.50;;;;;;6157104;23;20127;-80
2022/03/21 13:20:40;;;;;;;29.00;14.00;;;16.60;99.80;;;;;;6156747;23;20021;-81
2022/03/21 13:23:07;;;;;;;24.38;13.13;;;16.70;88.20;;;;;;6156981;23;20012;-81
2022/03/21 13:25:36;;;;;;;31.00;14.30;;;16.60;99.00;;;;;;6183107;23;20016;-81
2022/03/21 13:28:06;;;;;;;27.67;13.68;;;16.70;94.50;;;;;;6156490;23;20044;-81
2022/03/21 13:30:32;;;;;;;27.80;13.32;;;16.60;95.60;;;;;;6156519;23;20013;-81
2022/03/21 13:32:57;;;;;;;26.65;14.00;;;16.50;98.10;;;;;;6156939;23;20453;-81
2022/03/21 13:35:23;;;;;;;27.52;14.35;;;16.60;99.30;;;;;;6156731;23;20012;-81
2022/03/21 13:38:03;;;;;;;26.65;14.57;;;16.60;99.10;;;;;;6156833;23;20020;-80
2022/03/21 13:40:29;;;;;;;27.83;14.13;;;16.80;86.40;;;;;;6156746;23;20024;-80
2022/03/21 13:43:13;;;;;;;27.65;14.30;;;16.80;97.30;;;;;;6157536;23;20048;-80
2022/03/21 13:45:42;;;;;;;26.33;13.13;;;16.70;97.60;;;;;;6157050;23;20021;-80
2022/03/21 13:48:08;;;;;;;30.08;14.07;;;16.70;96.10;;;;;;6156556;23;20447;-81
2022/03/21 13:50:38;;;;;;;29.55;15.18;;;16.70;98.60;;;;;;6132305;23;20024;-81